sensor_id;sensor_type;location;lat;lon;timestamp;temperature;humidity
43641;DHT22;72791;52.546;13.570;2024-03-23T00:51:34;7.50;99.90
43641;DHT22;72791;52.546;13.570;2024-03-23T00:54:01;7.50;99.90
43641;DHT22;72791;52.546;13.570;2024-03-23T00:56:30;7.50;99.90
43641;DHT22;72791;52.546;13.570;2024-03-23T00:58:55;7.50;99.90
43641;DHT22;72791;52.546;13.570;2024-03-23T01:01:22;7.50;99.90
43641;DHT22;72791;52.546;13.570;2024-03-23T01:03:48;7.40;99.90
43641;DHT22;72791;52.546;13.570;2024-03-23T01:06:13;7.40;99.90
43641;DHT22;72791;52.546;13.570;2024-03-23T01:08:40;7.50;99.90
43641;DHT22;72791;52.546;13.570;2024-03-23T01:11:05;7.40;99.90
43641;DHT22;72791;52.546;13.570;2024-03-23T01:13:31;7.40;99.90
43641;DHT22;72791;52.546;13.570;2024-03-23T01:15:57;7.40;99.90
43641;DHT22;72791;52.546;13.570;2024-03-23T01:18:24;7.40;99.90
43641;DHT22;72791;52.546;13.570;2024-03-23T01:20:55;7.40;99.90
43641;DHT22;72791;52.546;13.570;2024-03-23T01:23:22;7.40;99.90
43641;DHT22;72791;52.546;13.570;2024-03-23T01:25:55;7.40;99.90
43641;DHT22;72791;52.546;13.570;2024-03-23T01:28:21;7.40;99.90
43641;DHT22;72791;52.546;13.570;2024-03-23T01:30:48;7.40;99.90
43641;DHT22;72791;52.546;13.570;2024-03-23T01:33:14;7.40;99.90
43641;DHT22;72791;52.546;13.570;2024-03-23T01:35:39;7.40;99.90
43641;DHT22;72791;52.546;13.570;2024-03-23T01:38:06;7.40;99.90
43641;DHT22;72791;52.546;13.570;2024-03-23T01:40:33;7.40;99.90
43641;DHT22;72791;52.546;13.570;2024-03-23T01:43:04;7.40;99.90
43641;DHT22;72791;52.546;13.570;2024-03-23T01:45:32;7.40;99.90
43641;DHT22;72791;52.546;13.570;2024-03-23T01:48:01;7.40;99.90
43641;DHT22;72791;52.546;13.570;2024-03-23T01:50:28;7.40;99.90
43641;DHT22;72791;52.546;13.570;2024-03-23T01:52:56;7.40;99.90
43641;DHT22;72791;52.546;13.570;2024-03-23T01:55:23;7.40;99.90
43641;DHT22;72791;52.546;13.570;2024-03-23T01:57:48;7.30;99.90
43641;DHT22;72791;52.546;13.570;2024-03-23T02:00:14;7.30;99.90
43641;DHT22;72791;52.546;13.570;2024-03-23T02:02:45;7.30;99.90
43641;DHT22;72791;52.546;13.570;2024-03-23T02:05:14;7.30;99.90
43641;DHT22;72791;52.546;13.570;2024-03-23T02:07:40;7.30;99.90
43641;DHT22;72791;52.546;13.570;2024-03-23T02:10:09;7.30;99.90
43641;DHT22;72791;52.546;13.570;2024-03-23T02:12:41;7.30;99.90
43641;DHT22;72791;52.546;13.570;2024-03-23T02:15:07;7.30;99.90
43641;DHT22;72791;52.546;13.570;2024-03-23T02:17:34;7.30;99.90
43641;DHT22;72791;52.546;13.570;2024-03-23T02:20:01;7.30;99.90
43641;DHT22;72791;52.546;13.570;2024-03-23T02:22:37;7.30;99.90
43641;DHT22;72791;52.546;13.570;2024-03-23T02:25:07;7.30;99.90
43641;DHT22;72791;52.546;13.570;2024-03-23T02:27:33;7.30;99.90
43641;DHT22;72791;52.546;13.570;2024-03-23T02:30:00;7.30;99.90
43641;DHT22;72791;52.546;13.570;2024-03-23T02:32:26;7.40;99.90
43641;DHT22;72791;52.546;13.570;2024-03-23T02:34:53;7.40;99.90
43641;DHT22;72791;52.546;13.570;2024-03-23T02:37:20;7.40;99.90
43641;DHT22;72791;52.546;13.570;2024-03-23T02:39:47;7.40;99.90
43641;DHT22;72791;52.546;13.570;2024-03-23T02:42:13;7.40;99.90
43641;DHT22;72791;52.546;13.570;2024-03-23T02:44:38;7.40;99.90
43641;DHT22;72791;52.546;13.570;2024-03-23T02:47:05;7.40;99.90
43641;DHT22;72791;52.546;13.570;2024-03-23T02:49:31;7.40;99.90
43641;DHT22;72791;52.546;13.570;2024-03-23T02:51:57;7.40;99.90
43641;DHT22;72791;52.546;13.570;2024-03-23T02:54:23;7.30;99.90
43641;DHT22;72791;52.546;13.570;2024-03-23T02:56:48;7.40;99.90
43641;DHT22;72791;52.546;13.570;2024-03-23T02:59:14;7.40;99.90
43641;DHT22;72791;52.546;13.570;2024-03-23T03:01:40;7.40;99.90
43641;DHT22;72791;52.546;13.570;2024-03-23T03:04:06;7.40;99.90
43641;DHT22;72791;52.546;13.570;2024-03-23T03:06:32;7.30;99.90
43641;DHT22;72791;52.546;13.570;2024-03-23T03:08:58;7.30;99.90
43641;DHT22;72791;52.546;13.570;2024-03-23T03:11:24;7.30;99.90
43641;DHT22;72791;52.546;13.570;2024-03-23T03:13:52;7.30;99.90
43641;DHT22;72791;52.546;13.570;2024-03-23T03:16:18;7.30;99.90
43641;DHT22;72791;52.546;13.570;2024-03-23T03:18:44;7.30;99.90
43641;DHT22;72791;52.546;13.570;2024-03-23T03:21:12;7.20;99.90
43641;DHT22;72791;52.546;13.570;2024-03-23T03:23:38;7.20;99.90
43641;DHT22;72791;52.546;13.570;2024-03-23T03:26:07;7.20;99.90
43641;DHT22;72791;52.546;13.570;2024-03-23T03:28:36;7.20;99.90
43641;DHT22;72791;52.546;13.570;2024-03-23T03:31:02;7.10;99.90
43641;DHT22;72791;52.546;13.570;2024-03-23T03:33:28;7.20;99.90
43641;DHT22;72791;52.546;13.570;2024-03-23T03:35:55;7.20;99.90
43641;DHT22;72791;52.546;13.570;2024-03-23T03:38:23;7.20;99.90
43641;DHT22;72791;52.546;13.570;2024-03-23T03:40:51;7.20;99.90
43641;DHT22;72791;52.546;13.570;2024-03-23T03:43:22;7.20;99.90
43641;DHT22;72791;52.546;13.570;2024-03-23T03:45:55;7.20;99.90
43641;DHT22;72791;52.546;13.570;2024-03-23T03:48:22;7.20;99.90
43641;DHT22;72791;52.546;13.570;2024-03-23T03:50:53;7.10;99.90
43641;DHT22;72791;52.546;13.570;2024-03-23T03:53:19;7.10;99.90
43641;DHT22;72791;52.546;13.570;2024-03-23T03:55:45;7.10;99.90
43641;DHT22;72791;52.546;13.570;2024-03-23T03:58:11;7.10;99.90
43641;DHT22;72791;52.546;13.570;2024-03-23T04:00:37;7.10;99.90
43641;DHT22;72791;52.546;13.570;2024-03-23T04:03:02;7.10;99.90
43641;DHT22;72791;52.546;13.570;2024-03-23T04:05:28;7.10;99.90
43641;DHT22;72791;52.546;13.570;2024-03-23T04:07:57;7.10;99.90
43641;DHT22;72791;52.546;13.570;2024-03-23T04:10:23;7.00;99.90
43641;DHT22;72791;52.546;13.570;2024-03-23T04:12:50;7.00;99.90
43641;DHT22;72791;52.546;13.570;2024-03-23T04:15:17;7.00;99.90
43641;DHT22;72791;52.546;13.570;2024-03-23T04:17:42;7.00;99.90
43641;DHT22;72791;52.546;13.570;2024-03-23T04:20:08;6.90;99.90
43641;DHT22;72791;52.546;13.570;2024-03-23T04:22:37;6.90;99.90
43641;DHT22;72791;52.546;13.570;2024-03-23T04:25:05;6.90;99.90
43641;DHT22;72791;52.546;13.570;2024-03-23T04:27:33;6.90;99.90
43641;DHT22;72791;52.546;13.570;2024-03-23T04:29:59;6.80;99.90
43641;DHT22;72791;52.546;13.570;2024-03-23T04:32:26;6.80;99.90
43641;DHT22;72791;52.546;13.570;2024-03-23T04:34:53;6.80;99.90
43641;DHT22;72791;52.546;13.570;2024-03-23T04:37:18;6.60;99.90
43641;DHT22;72791;52.546;13.570;2024-03-23T04:39:45;6.50;99.90
43641;DHT22;72791;52.546;13.570;2024-03-23T04:42:11;6.50;99.90
43641;DHT22;72791;52.546;13.570;2024-03-23T04:44:37;6.40;99.90
43641;DHT22;72791;52.546;13.570;2024-03-23T04:47:04;6.30;99.90
43641;DHT22;72791;52.546;13.570;2024-03-23T04:49:31;6.20;99.90
43641;DHT22;72791;52.546;13.570;2024-03-23T04:51:57;6.20;99.90
43641;DHT22;72791;52.546;13.570;2024-03-23T04:54:24;6.10;99.90
43641;DHT22;72791;52.546;13.570;2024-03-23T04:56:50;6.10;99.90
43641;DHT22;72791;52.546;13.570;2024-03-23T04:59:15;6.10;99.90
43641;DHT22;72791;52.546;13.570;2024-03-23T05:01:41;6.00;99.90
43641;DHT22;72791;52.546;13.570;2024-03-23T05:04:09;6.00;99.90
43641;DHT22;72791;52.546;13.570;2024-03-23T05:06:36;6.00;99.90
43641;DHT22;72791;52.546;13.570;2024-03-23T05:09:02;6.00;99.90
43641;DHT22;72791;52.546;13.570;2024-03-23T05:11:38;6.00;99.90
43641;DHT22;72791;52.546;13.570;2024-03-23T05:14:04;5.90;99.90
43641;DHT22;72791;52.546;13.570;2024-03-23T05:16:30;5.90;99.90
43641;DHT22;72791;52.546;13.570;2024-03-23T05:18:56;5.90;99.90
43641;DHT22;72791;52.546;13.570;2024-03-23T05:21:22;6.00;99.90
43641;DHT22;72791;52.546;13.570;2024-03-23T05:23:48;5.90;99.90
43641;DHT22;72791;52.546;13.570;2024-03-23T05:26:17;5.90;99.90
43641;DHT22;72791;52.546;13.570;2024-03-23T05:28:43;5.80;99.90
43641;DHT22;72791;52.546;13.570;2024-03-23T05:31:09;5.70;99.90
43641;DHT22;72791;52.546;13.570;2024-03-23T05:33:37;5.70;99.90
43641;DHT22;72791;52.546;13.570;2024-03-23T05:36:04;5.70;99.90
43641;DHT22;72791;52.546;13.570;2024-03-23T05:38:29;5.70;99.90
43641;DHT22;72791;52.546;13.570;2024-03-23T05:41:00;5.70;99.90
43641;DHT22;72791;52.546;13.570;2024-03-23T05:43:26;5.70;99.90
43641;DHT22;72791;52.546;13.570;2024-03-23T05:45:56;5.70;99.90
43641;DHT22;72791;52.546;13.570;2024-03-23T05:48:22;5.80;99.90
43641;DHT22;72791;52.546;13.570;2024-03-23T05:50:49;5.80;99.90
43641;DHT22;72791;52.546;13.570;2024-03-23T05:53:16;5.80;99.90
43641;DHT22;72791;52.546;13.570;2024-03-23T05:55:42;5.80;99.90
43641;DHT22;72791;52.546;13.570;2024-03-23T05:58:12;5.80;99.90
43641;DHT22;72791;52.546;13.570;2024-03-23T06:00:38;5.90;99.90
43641;DHT22;72791;52.546;13.570;2024-03-23T06:03:04;5.90;99.90
43641;DHT22;72791;52.546;13.570;2024-03-23T06:05:30;5.90;99.90
43641;DHT22;72791;52.546;13.570;2024-03-23T06:07:58;6.00;99.90
43641;DHT22;72791;52.546;13.570;2024-03-23T06:10:24;6.00;99.90
43641;DHT22;72791;52.546;13.570;2024-03-23T06:12:51;6.00;99.90
43641;DHT22;72791;52.546;13.570;2024-03-23T06:15:21;6.00;99.90
43641;DHT22;72791;52.546;13.570;2024-03-23T06:17:48;6.00;99.90
43641;DHT22;72791;52.546;13.570;2024-03-23T06:20:14;6.00;99.90
43641;DHT22;72791;52.546;13.570;2024-03-23T06:22:41;6.00;99.90
43641;DHT22;72791;52.546;13.570;2024-03-23T06:25:07;6.00;99.90
43641;DHT22;72791;52.546;13.570;2024-03-23T06:27:33;6.00;99.90
43641;DHT22;72791;52.546;13.570;2024-03-23T06:30:02;6.10;99.90
43641;DHT22;72791;52.546;13.570;2024-03-23T06:32:28;6.10;99.90
43641;DHT22;72791;52.546;13.570;2024-03-23T06:34:56;6.10;99.90
43641;DHT22;72791;52.546;13.570;2024-03-23T06:37:22;6.20;99.90
43641;DHT22;72791;52.546;13.570;2024-03-23T06:39:49;6.20;99.90
43641;DHT22;72791;52.546;13.570;2024-03-23T06:42:15;6.30;99.90
43641;DHT22;72791;52.546;13.570;2024-03-23T06:44:40;6.30;99.90
43641;DHT22;72791;52.546;13.570;2024-03-23T06:47:06;6.40;99.90
43641;DHT22;72791;52.546;13.570;2024-03-23T06:49:32;6.40;99.90
43641;DHT22;72791;52.546;13.570;2024-03-23T06:51:59;6.30;99.90
43641;DHT22;72791;52.546;13.570;2024-03-23T06:54:25;6.20;99.90
43641;DHT22;72791;52.546;13.570;2024-03-23T06:56:51;6.20;99.90
43641;DHT22;72791;52.546;13.570;2024-03-23T06:59:16;6.20;99.90
43641;DHT22;72791;52.546;13.570;2024-03-23T07:01:42;6.30;99.90
43641;DHT22;72791;52.546;13.570;2024-03-23T07:04:08;6.40;99.90
43641;DHT22;72791;52.546;13.570;2024-03-23T07:06:34;6.40;99.90
43641;DHT22;72791;52.546;13.570;2024-03-23T07:08:59;6.40;99.90
43641;DHT22;72791;52.546;13.570;2024-03-23T07:11:25;6.40;99.90
43641;DHT22;72791;52.546;13.570;2024-03-23T07:13:54;6.30;99.90
43641;DHT22;72791;52.546;13.570;2024-03-23T07:16:20;6.40;99.90
43641;DHT22;72791;52.546;13.570;2024-03-23T07:18:46;6.40;99.90
43641;DHT22;72791;52.546;13.570;2024-03-23T07:21:14;6.30;99.90
43641;DHT22;72791;52.546;13.570;2024-03-23T07:23:42;6.20;99.90
43641;DHT22;72791;52.546;13.570;2024-03-23T07:26:11;6.10;99.90
43641;DHT22;72791;52.546;13.570;2024-03-23T07:28:37;6.10;99.90
43641;DHT22;72791;52.546;13.570;2024-03-23T07:31:05;6.00;99.90
43641;DHT22;72791;52.546;13.570;2024-03-23T07:33:31;6.00;99.90
43641;DHT22;72791;52.546;13.570;2024-03-23T07:35:57;6.10;99.90
43641;DHT22;72791;52.546;13.570;2024-03-23T07:38:25;6.10;99.90
43641;DHT22;72791;52.546;13.570;2024-03-23T07:40:51;6.20;99.90
43641;DHT22;72791;52.546;13.570;2024-03-23T07:43:21;6.30;99.90
43641;DHT22;72791;52.546;13.570;2024-03-23T07:45:55;6.30;99.90
43641;DHT22;72791;52.546;13.570;2024-03-23T07:48:21;6.40;99.90
43641;DHT22;72791;52.546;13.570;2024-03-23T07:51:03;6.20;99.90
43641;DHT22;72791;52.546;13.570;2024-03-23T07:53:31;6.20;99.90
43641;DHT22;72791;52.546;13.570;2024-03-23T07:56:02;6.30;99.90
43641;DHT22;72791;52.546;13.570;2024-03-23T07:58:28;6.40;99.90
43641;DHT22;72791;52.546;13.570;2024-03-23T08:01:04;6.30;99.90
43641;DHT22;72791;52.546;13.570;2024-03-23T08:03:33;6.30;99.90
43641;DHT22;72791;52.546;13.570;2024-03-23T08:06:07;6.10;99.90
43641;DHT22;72791;52.546;13.570;2024-03-23T08:08:35;5.80;99.90
43641;DHT22;72791;52.546;13.570;2024-03-23T08:11:01;5.70;99.90
43641;DHT22;72791;52.546;13.570;2024-03-23T08:13:27;5.50;99.90
43641;DHT22;72791;52.546;13.570;2024-03-23T08:15:57;5.30;99.90
43641;DHT22;72791;52.546;13.570;2024-03-23T08:18:23;5.20;99.90
43641;DHT22;72791;52.546;13.570;2024-03-23T08:21:05;5.10;99.90
43641;DHT22;72791;52.546;13.570;2024-03-23T08:23:35;5.10;99.90
43641;DHT22;72791;52.546;13.570;2024-03-23T08:26:05;5.10;99.90
43641;DHT22;72791;52.546;13.570;2024-03-23T08:28:31;5.10;99.90
43641;DHT22;72791;52.546;13.570;2024-03-23T08:31:00;5.10;99.90
43641;DHT22;72791;52.546;13.570;2024-03-23T08:33:27;5.00;99.90
43641;DHT22;72791;52.546;13.570;2024-03-23T08:36:04;5.10;99.90
43641;DHT22;72791;52.546;13.570;2024-03-23T08:38:31;5.20;99.90
43641;DHT22;72791;52.546;13.570;2024-03-23T08:41:05;5.20;99.90
43641;DHT22;72791;52.546;13.570;2024-03-23T08:43:41;5.20;99.90
43641;DHT22;72791;52.546;13.570;2024-03-23T08:46:12;5.10;99.90
43641;DHT22;72791;52.546;13.570;2024-03-23T08:48:39;5.10;99.90
43641;DHT22;72791;52.546;13.570;2024-03-23T08:51:06;5.10;99.90
43641;DHT22;72791;52.546;13.570;2024-03-23T08:53:33;5.00;99.90
43641;DHT22;72791;52.546;13.570;2024-03-23T08:56:00;4.90;99.90
43641;DHT22;72791;52.546;13.570;2024-03-23T08:58:30;4.70;99.90
43641;DHT22;72791;52.546;13.570;2024-03-23T09:01:10;4.70;99.90
43641;DHT22;72791;52.546;13.570;2024-03-23T09:03:36;4.70;99.90
43641;DHT22;72791;52.546;13.570;2024-03-23T09:06:14;4.80;99.90
43641;DHT22;72791;52.546;13.570;2024-03-23T09:08:40;4.80;99.90
43641;DHT22;72791;52.546;13.570;2024-03-23T09:11:07;4.80;99.90
43641;DHT22;72791;52.546;13.570;2024-03-23T09:13:34;4.70;99.90
43641;DHT22;72791;52.546;13.570;2024-03-23T09:16:02;4.70;99.90
43641;DHT22;72791;52.546;13.570;2024-03-23T09:18:27;4.70;99.90
43641;DHT22;72791;52.546;13.570;2024-03-23T09:20:57;4.70;99.90
43641;DHT22;72791;52.546;13.570;2024-03-23T09:23:23;4.60;99.90
43641;DHT22;72791;52.546;13.570;2024-03-23T09:25:49;4.60;99.90
43641;DHT22;72791;52.546;13.570;2024-03-23T09:28:15;4.50;99.90
43641;DHT22;72791;52.546;13.570;2024-03-23T09:30:40;4.30;99.90
43641;DHT22;72791;52.546;13.570;2024-03-23T09:33:10;4.20;99.90
43641;DHT22;72791;52.546;13.570;2024-03-23T09:35:41;4.00;99.90
43641;DHT22;72791;52.546;13.570;2024-03-23T09:38:08;3.90;99.90
43641;DHT22;72791;52.546;13.570;2024-03-23T09:40:44;3.80;99.90
43641;DHT22;72791;52.546;13.570;2024-03-23T09:43:11;3.80;99.90
43641;DHT22;72791;52.546;13.570;2024-03-23T09:45:39;3.80;99.90
43641;DHT22;72791;52.546;13.570;2024-03-23T09:48:10;3.80;99.90
43641;DHT22;72791;52.546;13.570;2024-03-23T09:50:40;3.80;99.90
43641;DHT22;72791;52.546;13.570;2024-03-23T09:53:07;3.90;99.90
43641;DHT22;72791;52.546;13.570;2024-03-23T09:55:33;4.00;99.90
43641;DHT22;72791;52.546;13.570;2024-03-23T09:57:59;4.00;99.90
43641;DHT22;72791;52.546;13.570;2024-03-23T10:00:25;3.90;99.90
43641;DHT22;72791;52.546;13.570;2024-03-23T10:02:51;3.80;99.90
43641;DHT22;72791;52.546;13.570;2024-03-23T10:05:21;3.70;99.90
43641;DHT22;72791;52.546;13.570;2024-03-23T10:07:51;3.60;99.90
43641;DHT22;72791;52.546;13.570;2024-03-23T10:10:17;3.50;99.90
43641;DHT22;72791;52.546;13.570;2024-03-23T10:12:49;3.50;99.90
43641;DHT22;72791;52.546;13.570;2024-03-23T10:15:22;3.60;99.90
43641;DHT22;72791;52.546;13.570;2024-03-23T10:17:48;3.70;99.90
43641;DHT22;72791;52.546;13.570;2024-03-23T10:20:20;3.70;99.90
43641;DHT22;72791;52.546;13.570;2024-03-23T10:22:48;3.80;99.90
43641;DHT22;72791;52.546;13.570;2024-03-23T10:25:15;3.80;99.90
43641;DHT22;72791;52.546;13.570;2024-03-23T10:27:41;3.90;99.90
43641;DHT22;72791;52.546;13.570;2024-03-23T10:30:10;3.90;99.90
43641;DHT22;72791;52.546;13.570;2024-03-23T10:32:37;3.90;99.90
43641;DHT22;72791;52.546;13.570;2024-03-23T10:35:17;3.80;99.90
43641;DHT22;72791;52.546;13.570;2024-03-23T10:37:49;3.80;99.90
43641;DHT22;72791;52.546;13.570;2024-03-23T10:40:17;3.80;99.90
43641;DHT22;72791;52.546;13.570;2024-03-23T10:42:44;3.60;99.90
43641;DHT22;72791;52.546;13.570;2024-03-23T10:45:10;3.70;99.90
43641;DHT22;72791;52.546;13.570;2024-03-23T10:47:37;3.70;99.90
43641;DHT22;72791;52.546;13.570;2024-03-23T10:50:06;3.80;99.90
43641;DHT22;72791;52.546;13.570;2024-03-23T10:52:33;3.80;99.90
43641;DHT22;72791;52.546;13.570;2024-03-23T10:55:02;3.80;99.90
43641;DHT22;72791;52.546;13.570;2024-03-23T10:57:40;3.90;99.90
43641;DHT22;72791;52.546;13.570;2024-03-23T11:00:08;3.90;99.90
43641;DHT22;72791;52.546;13.570;2024-03-23T11:02:34;4.00;99.90
43641;DHT22;72791;52.546;13.570;2024-03-23T11:05:00;4.00;99.90
43641;DHT22;72791;52.546;13.570;2024-03-23T11:07:30;4.00;99.90
43641;DHT22;72791;52.546;13.570;2024-03-23T11:09:57;4.00;99.90
43641;DHT22;72791;52.546;13.570;2024-03-23T11:12:28;4.00;99.90
43641;DHT22;72791;52.546;13.570;2024-03-23T11:15:13;4.00;99.90
43641;DHT22;72791;52.546;13.570;2024-03-23T11:17:38;4.10;99.90
43641;DHT22;72791;52.546;13.570;2024-03-23T11:20:05;4.20;99.90
43641;DHT22;72791;52.546;13.570;2024-03-23T11:23:01;4.20;99.90
43641;DHT22;72791;52.546;13.570;2024-03-23T11:25:29;4.40;99.90
43641;DHT22;72791;52.546;13.570;2024-03-23T11:28:10;4.60;99.90
43641;DHT22;72791;52.546;13.570;2024-03-23T11:30:38;4.80;99.90
43641;DHT22;72791;52.546;13.570;2024-03-23T11:33:04;5.00;99.90
43641;DHT22;72791;52.546;13.570;2024-03-23T11:35:31;5.20;99.90
43641;DHT22;72791;52.546;13.570;2024-03-23T11:40:47;5.60;99.90
43641;DHT22;72791;52.546;13.570;2024-03-23T11:43:15;5.70;99.90
43641;DHT22;72791;52.546;13.570;2024-03-23T11:45:51;5.60;99.90
43641;DHT22;72791;52.546;13.570;2024-03-23T11:48:23;5.70;99.90
43641;DHT22;72791;52.546;13.570;2024-03-23T11:50:51;5.70;99.90
43641;DHT22;72791;52.546;13.570;2024-03-23T11:53:22;6.00;99.90
43641;DHT22;72791;52.546;13.570;2024-03-23T11:56:10;6.10;99.90
43641;DHT22;72791;52.546;13.570;2024-03-23T11:58:36;6.30;99.90
43641;DHT22;72791;52.546;13.570;2024-03-23T12:01:03;6.40;99.90
43641;DHT22;72791;52.546;13.570;2024-03-23T12:03:30;6.50;99.90
43641;DHT22;72791;52.546;13.570;2024-03-23T12:06:01;6.80;99.90
43641;DHT22;72791;52.546;13.570;2024-03-23T12:08:34;6.90;99.90
43641;DHT22;72791;52.546;13.570;2024-03-23T12:11:14;6.70;99.90
43641;DHT22;72791;52.546;13.570;2024-03-23T12:13:41;6.50;99.90
43641;DHT22;72791;52.546;13.570;2024-03-23T12:16:18;6.50;99.90
43641;DHT22;72791;52.546;13.570;2024-03-23T12:18:48;6.70;99.90
43641;DHT22;72791;52.546;13.570;2024-03-23T12:21:16;6.80;99.90
43641;DHT22;72791;52.546;13.570;2024-03-23T12:23:44;6.80;99.90
43641;DHT22;72791;52.546;13.570;2024-03-23T12:26:14;6.80;99.90
43641;DHT22;72791;52.546;13.570;2024-03-23T12:28:41;6.60;99.90
43641;DHT22;72791;52.546;13.570;2024-03-23T12:31:10;6.70;99.90
43641;DHT22;72791;52.546;13.570;2024-03-23T12:33:37;6.70;99.90
43641;DHT22;72791;52.546;13.570;2024-03-23T12:36:06;6.60;99.90
43641;DHT22;72791;52.546;13.570;2024-03-23T12:39:00;6.40;99.90
43641;DHT22;72791;52.546;13.570;2024-03-23T12:41:26;6.10;99.90
43641;DHT22;72791;52.546;13.570;2024-03-23T12:43:56;6.40;99.90
43641;DHT22;72791;52.546;13.570;2024-03-23T12:46:22;6.50;99.90
43641;DHT22;72791;52.546;13.570;2024-03-23T12:48:48;6.90;99.90
43641;DHT22;72791;52.546;13.570;2024-03-23T12:51:16;6.90;99.90
43641;DHT22;72791;52.546;13.570;2024-03-23T12:53:47;7.20;99.90
43641;DHT22;72791;52.546;13.570;2024-03-23T12:56:12;7.80;99.90
43641;DHT22;72791;52.546;13.570;2024-03-23T12:58:39;7.60;99.90
43641;DHT22;72791;52.546;13.570;2024-03-23T13:01:05;7.70;99.90
43641;DHT22;72791;52.546;13.570;2024-03-23T13:03:31;7.50;99.90
43641;DHT22;72791;52.546;13.570;2024-03-23T13:05:57;7.20;99.90
43641;DHT22;72791;52.546;13.570;2024-03-23T13:08:24;7.10;99.90
43641;DHT22;72791;52.546;13.570;2024-03-23T13:10:53;7.20;99.90
43641;DHT22;72791;52.546;13.570;2024-03-23T13:13:20;7.20;99.90
43641;DHT22;72791;52.546;13.570;2024-03-23T13:15:50;7.30;99.90
43641;DHT22;72791;52.546;13.570;2024-03-23T13:18:16;7.40;99.90
43641;DHT22;72791;52.546;13.570;2024-03-23T13:20:42;7.70;99.90
43641;DHT22;72791;52.546;13.570;2024-03-23T13:23:08;8.00;99.90
43641;DHT22;72791;52.546;13.570;2024-03-23T13:25:34;7.60;99.90
43641;DHT22;72791;52.546;13.570;2024-03-23T13:28:00;7.60;99.90
43641;DHT22;72791;52.546;13.570;2024-03-23T13:30:27;7.30;99.90
43641;DHT22;72791;52.546;13.570;2024-03-23T13:32:53;7.40;99.90
43641;DHT22;72791;52.546;13.570;2024-03-23T13:35:20;7.70;99.90
43641;DHT22;72791;52.546;13.570;2024-03-23T13:37:47;7.90;99.90
43641;DHT22;72791;52.546;13.570;2024-03-23T13:40:13;7.90;99.90
43641;DHT22;72791;52.546;13.570;2024-03-23T13:42:39;8.20;99.90
43641;DHT22;72791;52.546;13.570;2024-03-23T13:45:05;8.50;99.90
43641;DHT22;72791;52.546;13.570;2024-03-23T13:47:34;8.50;99.90
43641;DHT22;72791;52.546;13.570;2024-03-23T13:49:59;8.50;99.90
43641;DHT22;72791;52.546;13.570;2024-03-23T13:52:27;8.10;99.90
43641;DHT22;72791;52.546;13.570;2024-03-23T13:54:53;7.90;99.90
43641;DHT22;72791;52.546;13.570;2024-03-23T13:57:19;7.80;99.90
43641;DHT22;72791;52.546;13.570;2024-03-23T13:59:47;7.70;99.90
43641;DHT22;72791;52.546;13.570;2024-03-23T14:02:14;7.90;99.90
43641;DHT22;72791;52.546;13.570;2024-03-23T14:04:40;7.80;99.90
43641;DHT22;72791;52.546;13.570;2024-03-23T14:07:09;7.80;99.90
43641;DHT22;72791;52.546;13.570;2024-03-23T14:09:37;8.00;99.90
43641;DHT22;72791;52.546;13.570;2024-03-23T14:12:02;8.10;99.90
43641;DHT22;72791;52.546;13.570;2024-03-23T14:14:31;8.40;99.90
43641;DHT22;72791;52.546;13.570;2024-03-23T14:17:01;8.60;99.90
43641;DHT22;72791;52.546;13.570;2024-03-23T14:19:28;8.50;99.90
43641;DHT22;72791;52.546;13.570;2024-03-23T14:21:53;8.60;99.90
43641;DHT22;72791;52.546;13.570;2024-03-23T14:24:20;8.60;99.90
43641;DHT22;72791;52.546;13.570;2024-03-23T14:26:49;8.70;99.90
43641;DHT22;72791;52.546;13.570;2024-03-23T14:29:15;8.50;99.90
43641;DHT22;72791;52.546;13.570;2024-03-23T14:31:41;8.50;99.90
43641;DHT22;72791;52.546;13.570;2024-03-23T14:34:07;8.40;99.90
43641;DHT22;72791;52.546;13.570;2024-03-23T14:36:32;8.40;99.90
43641;DHT22;72791;52.546;13.570;2024-03-23T14:38:58;8.30;99.90
43641;DHT22;72791;52.546;13.570;2024-03-23T14:41:24;8.40;99.90
43641;DHT22;72791;52.546;13.570;2024-03-23T14:43:50;8.40;99.90
43641;DHT22;72791;52.546;13.570;2024-03-23T14:46:16;8.20;99.90
43641;DHT22;72791;52.546;13.570;2024-03-23T14:48:46;8.00;99.90
43641;DHT22;72791;52.546;13.570;2024-03-23T14:51:12;8.00;99.90
43641;DHT22;72791;52.546;13.570;2024-03-23T14:53:45;8.00;99.90
43641;DHT22;72791;52.546;13.570;2024-03-23T14:56:15;7.60;99.90
43641;DHT22;72791;52.546;13.570;2024-03-23T14:58:43;7.00;99.90
43641;DHT22;72791;52.546;13.570;2024-03-23T15:01:11;6.30;99.90
43641;DHT22;72791;52.546;13.570;2024-03-23T15:03:40;5.80;99.90
43641;DHT22;72791;52.546;13.570;2024-03-23T15:06:09;5.30;99.90
43641;DHT22;72791;52.546;13.570;2024-03-23T15:08:36;4.80;99.90
43641;DHT22;72791;52.546;13.570;2024-03-23T15:11:03;4.60;99.90
43641;DHT22;72791;52.546;13.570;2024-03-23T15:13:34;4.50;99.90
43641;DHT22;72791;52.546;13.570;2024-03-23T15:16:00;4.60;99.90
43641;DHT22;72791;52.546;13.570;2024-03-23T15:18:26;4.70;99.90
43641;DHT22;72791;52.546;13.570;2024-03-23T15:20:58;4.70;99.90
43641;DHT22;72791;52.546;13.570;2024-03-23T15:23:28;5.00;99.90
43641;DHT22;72791;52.546;13.570;2024-03-23T15:25:56;5.60;99.90
43641;DHT22;72791;52.546;13.570;2024-03-23T15:28:25;6.00;99.90
43641;DHT22;72791;52.546;13.570;2024-03-23T15:31:07;6.10;99.90
43641;DHT22;72791;52.546;13.570;2024-03-23T15:33:39;6.20;99.90
43641;DHT22;72791;52.546;13.570;2024-03-23T15:36:05;6.30;99.90
43641;DHT22;72791;52.546;13.570;2024-03-23T15:38:33;6.30;99.90
43641;DHT22;72791;52.546;13.570;2024-03-23T15:40:59;6.30;99.90
43641;DHT22;72791;52.546;13.570;2024-03-23T15:43:25;6.30;99.90
43641;DHT22;72791;52.546;13.570;2024-03-23T15:45:55;6.50;99.90
43641;DHT22;72791;52.546;13.570;2024-03-23T15:48:20;6.60;99.90
43641;DHT22;72791;52.546;13.570;2024-03-23T15:50:54;6.50;99.90
43641;DHT22;72791;52.546;13.570;2024-03-23T15:53:20;6.60;99.90
43641;DHT22;72791;52.546;13.570;2024-03-23T15:56:00;6.80;99.90
43641;DHT22;72791;52.546;13.570;2024-03-23T15:58:28;7.00;99.90
43641;DHT22;72791;52.546;13.570;2024-03-23T16:01:07;7.20;99.90
43641;DHT22;72791;52.546;13.570;2024-03-23T16:03:36;7.40;99.90
43641;DHT22;72791;52.546;13.570;2024-03-23T16:06:05;7.40;99.90
43641;DHT22;72791;52.546;13.570;2024-03-23T16:08:34;7.60;99.90
43641;DHT22;72791;52.546;13.570;2024-03-23T16:11:03;7.80;99.90
43641;DHT22;72791;52.546;13.570;2024-03-23T16:13:33;8.00;99.90
43641;DHT22;72791;52.546;13.570;2024-03-23T16:16:01;7.90;99.90
43641;DHT22;72791;52.546;13.570;2024-03-23T16:18:35;8.00;99.90
43641;DHT22;72791;52.546;13.570;2024-03-23T16:21:03;7.80;99.90
43641;DHT22;72791;52.546;13.570;2024-03-23T16:23:29;7.80;99.90
43641;DHT22;72791;52.546;13.570;2024-03-23T16:25:56;7.70;99.90
43641;DHT22;72791;52.546;13.570;2024-03-23T16:28:32;7.90;99.90